| time (UTC) | temp F | wind direction | speed knots | gust knots | rain 1hr in | rain 24hr in | rain mn in | humidity % | barometer mb |
| 20260906112517 | 88 | 189 | 2.6 | 4.3 | 0.00 | 0.00 | 0.00 | 53 | 1023.1 |
| 20260906111534 | 88 | 212 | 2.6 | 5.2 | 0.00 | 0.00 | 0.00 | 53 | 1023.1 |
| 20260906110532 | 88 | 191 | 1.7 | 5.2 | 0.00 | 0.00 | 0.00 | 54 | 1023.1 |
| 20260906105530 | 87 | 170 | 1.7 | 3.5 | 0.00 | 0.00 | 0.00 | 55 | 1023.1 |
| 20260906104527 | 87 | 187 | 1.7 | 4.3 | 0.00 | 0.00 | 0.00 | 56 | 1023.1 |
| 20260906103525 | 86 | 186 | 0.9 | 3.5 | 0.00 | 0.00 | 0.00 | 57 | 1023.1 |
| 20260906102522 | 85 | 188 | 1.7 | 4.3 | 0.00 | 0.00 | 0.00 | 59 | 1023.2 |
| 20260906101520 | 84 | 73 | 0.9 | 2.6 | 0.00 | 0.00 | 0.00 | 64 | 1023.3 |
| 20260906100517 | 84 | 166 | 0.9 | 4.3 | 0.00 | 0.00 | 0.00 | 64 | 1023.3 |
| 20260906095535 | 84 | 97 | 0.9 | 2.6 | 0.00 | 0.00 | 0.00 | 65 | 1023.3 |
| 20260906094533 | 83 | 125 | 1.7 | 4.3 | 0.00 | 0.00 | 0.00 | 64 | 1023.3 |
| 20260906093530 | 84 | 131 | 0.9 | 2.6 | 0.00 | 0.00 | 0.00 | 65 | 1023.2 |
| 20260906092528 | 84 | 106 | 0.9 | 2.6 | 0.00 | 0.00 | 0.00 | 64 | 1023.2 |
| 20260906091525 | 82 | 191 | 1.7 | 3.5 | 0.00 | 0.00 | 0.00 | 65 | 1023.3 |
| 20260906090523 | 82 | 191 | 1.7 | 2.6 | 0.00 | 0.00 | 0.00 | 67 | 1023.2 |
| 20260906083516 | 81 | 179 | 0.9 | 2.6 | 0.00 | 0.00 | 0.00 | 70 | 1023.1 |
| 20260906082534 | 80 | 187 | 1.7 | 3.5 | 0.00 | 0.00 | 0.00 | 73 | 1023.0 |
| 20260906081531 | 80 | 190 | 1.7 | 2.6 | 0.00 | 0.00 | 0.00 | 72 | 1023.0 |
| 20260906080529 | 81 | 173 | 0.9 | 2.6 | 0.00 | 0.00 | 0.00 | 72 | 1023.0 |
| 20260906075526 | 81 | 95 | 0.0 | 1.7 | 0.00 | 0.00 | 0.00 | 71 | 1022.8 |
| 20260906074524 | 81 | 172 | 0.0 | 1.7 | 0.00 | 0.00 | 0.00 | 71 | 1022.9 |
| 20260906073521 | 80 | 186 | 0.0 | 1.7 | 0.00 | 0.00 | 0.00 | 71 | 1022.7 |
| 20260906072519 | 79 | 181 | 0.9 | 1.7 | 0.00 | 0.00 | 0.00 | 73 | 1022.7 |
| 20260906071517 | 78 | 190 | 1.7 | 2.6 | 0.00 | 0.00 | 0.00 | 75 | 1022.6 |
| 20260906070534 | 77 | 185 | 0.9 | 2.6 | 0.00 | 0.00 | 0.00 | 75 | 1022.5 |
| 20260906065532 | 76 | 193 | 0.9 | 2.6 | 0.00 | 0.00 | 0.00 | 77 | 1022.4 |
| 20260906064529 | 77 | 151 | 0.0 | 1.7 | 0.00 | 0.00 | 0.00 | 75 | 1022.3 |
| 20260906063527 | 74 | 197 | 0.9 | 2.6 | 0.00 | 0.00 | 0.00 | 79 | 1022.3 |
| 20260906062525 | 73 | 193 | 1.7 | 2.6 | 0.00 | 0.00 | 0.00 | 80 | 1022.2 |
| 20260906061522 | 74 | 193 | 0.9 | 2.6 | 0.00 | 0.00 | 0.00 | 81 | 1022.1 |
| 20260906060520 | 76 | 176 | 0.9 | 1.7 | 0.00 | 0.00 | 0.00 | 78 | 1021.9 |
| 20260906055517 | 74 | 249 | 0.0 | 1.7 | 0.00 | 0.00 | 0.00 | 83 | 1021.8 |
| 20260906054515 | 75 | 195 | 0.0 | 0.9 | 0.00 | 0.00 | 0.00 | 79 | 1021.7 |
| 20260906053533 | 73 | 0.0 | 0.9 | 0.00 | 0.00 | 0.00 | 82 | 1021.8 | |
| 20260906052530 | 71 | 222 | 0.0 | 0.9 | 0.00 | 0.00 | 0.00 | 86 | 1021.7 |
| 20260906051528 | 69 | 205 | 0.0 | 1.7 | 0.00 | 0.00 | 0.00 | 89 | 1021.6 |
| 20260906050525 | 68 | 293 | 0.0 | 1.7 | 0.00 | 0.00 | 0.00 | 91 | 1021.5 |
| 20260906045523 | 68 | 0.0 | 0.9 | 0.00 | 0.00 | 0.00 | 92 | 1021.5 | |
| 20260906044521 | 68 | 250 | 0.0 | 1.7 | 0.00 | 0.00 | 0.00 | 92 | 1021.4 |
| 20260906043518 | 68 | 273 | 0.0 | 1.7 | 0.00 | 0.00 | 0.00 | 93 | 1021.6 |
| 20260906042516 | 68 | 243 | 0.0 | 1.7 | 0.00 | 0.00 | 0.00 | 93 | 1021.5 |
| 20260906041533 | 68 | 285 | 0.0 | 1.7 | 0.00 | 0.00 | 0.00 | 94 | 1021.4 |
| 20260906040531 | 68 | 299 | 0.0 | 1.7 | 0.00 | 0.00 | 0.00 | 94 | 1021.5 |
| 20260906035529 | 68 | 0.0 | 0.9 | 0.00 | 0.00 | 0.00 | 94 | 1021.3 | |
| 20260906034526 | 69 | 212 | 0.0 | 1.7 | 0.00 | 0.00 | 0.00 | 94 | 1021.3 |
| 20260906033524 | 69 | 259 | 0.0 | 1.7 | 0.00 | 0.00 | 0.00 | 94 | 1021.3 |
| 20260906032521 | 69 | 260 | 0.9 | 1.7 | 0.00 | 0.00 | 0.00 | 95 | 1021.2 |
| 20260906031519 | 69 | 201 | 0.0 | 1.7 | 0.00 | 0.00 | 0.00 | 94 | 1021.4 |
| 20260906030516 | 69 | 206 | 0.0 | 1.7 | 0.00 | 0.00 | 0.00 | 94 | 1021.2 |
| 20260906025534 | 69 | 52 | 0.0 | 1.7 | 0.00 | 0.00 | 0.00 | 94 | 1021.3 |
| 20260906024532 | 69 | 316 | 0.0 | 1.7 | 0.00 | 0.00 | 0.00 | 94 | 1021.2 |
| 20260906023529 | 69 | 207 | 0.0 | 1.7 | 0.00 | 0.00 | 0.00 | 94 | 1021.2 |
| 20260906022527 | 69 | 146 | 0.0 | 1.7 | 0.00 | 0.00 | 0.00 | 95 | 1021.2 |
| 20260906021525 | 68 | 329 | 0.9 | 1.7 | 0.00 | 0.00 | 0.00 | 95 | 1021.4 |
| 20260906020522 | 68 | 227 | 0.9 | 1.7 | 0.00 | 0.00 | 0.00 | 95 | 1021.2 |
| 20260906015520 | 69 | 232 | 0.0 | 1.7 | 0.00 | 0.00 | 0.00 | 95 | 1021.3 |
| 20260906014517 | 69 | 291 | 0.0 | 1.7 | 0.00 | 0.00 | 0.00 | 95 | 1021.3 |
| 20260906013535 | 69 | 102 | 0.0 | 1.7 | 0.00 | 0.00 | 0.00 | 94 | 1021.2 |
| 20260906012532 | 69 | 0.0 | 0.9 | 0.00 | 0.00 | 0.00 | 94 | 1021.3 | |
| 20260906011530 | 69 | 256 | 0.0 | 0.9 | 0.00 | 0.00 | 0.00 | 94 | 1021.3 |
| 20260906010528 | 69 | 0.0 | 0.0 | 0.00 | 0.00 | 0.00 | 94 | 1021.3 | |
| 20260906005525 | 69 | 288 | 0.0 | 0.9 | 0.00 | 0.00 | 0.00 | 94 | 1021.4 |
| 20260906004523 | 70 | 101 | 0.0 | 1.7 | 0.00 | 0.00 | 0.00 | 95 | 1021.3 |
| 20260906003520 | 69 | 253 | 0.0 | 1.7 | 0.00 | 0.00 | 0.00 | 95 | 1021.3 |
| 20260906002518 | 69 | 0.0 | 0.0 | 0.00 | 0.00 | 0.00 | 94 | 1021.3 | |
| 20260906001516 | 70 | 0.0 | 0.0 | 0.00 | 0.00 | 0.00 | 94 | 1021.4 | |
| 20260906000533 | 70 | 66 | 0.0 | 0.9 | 0.00 | 0.00 | 0.00 | 94 | 1021.4 |
| 20260905235531 | 70 | 194 | 0.0 | 0.9 | 0.00 | 0.00 | 0.00 | 93 | 1021.4 |
| 20260905234528 | 70 | 153 | 0.0 | 1.7 | 0.00 | 0.00 | 0.00 | 93 | 1021.5 |
| 20260905233526 | 71 | 232 | 0.9 | 1.7 | 0.00 | 0.00 | 0.00 | 92 | 1021.6 |
| 20260905232523 | 71 | 212 | 0.0 | 1.7 | 0.00 | 0.00 | 0.00 | 92 | 1021.5 |
| 20260905231521 | 71 | 131 | 0.0 | 1.7 | 0.00 | 0.00 | 0.00 | 92 | 1021.7 |
| 20260905230519 | 70 | 294 | 0.9 | 1.7 | 0.00 | 0.00 | 0.00 | 93 | 1021.7 |
| 20260905225516 | 71 | 83 | 0.0 | 0.9 | 0.00 | 0.00 | 0.00 | 92 | 1021.7 |
| 20260905224534 | 71 | 0.0 | 0.9 | 0.00 | 0.00 | 0.00 | 92 | 1021.6 | |
| 20260905223532 | 71 | 261 | 0.0 | 1.7 | 0.00 | 0.00 | 0.00 | 92 | 1021.6 |
| 20260905222529 | 71 | 0.0 | 0.0 | 0.00 | 0.00 | 0.00 | 92 | 1021.4 | |
| 20260905221527 | 71 | 251 | 0.0 | 1.7 | 0.00 | 0.00 | 0.00 | 91 | 1021.4 |
| 20260905220524 | 71 | 267 | 0.0 | 0.9 | 0.00 | 0.00 | 0.00 | 91 | 1021.5 |
| 20260905215522 | 71 | 263 | 0.0 | 0.9 | 0.00 | 0.00 | 0.00 | 91 | 1021.4 |
| 20260905214519 | 71 | 0.0 | 0.9 | 0.00 | 0.00 | 0.00 | 90 | 1021.3 | |
| 20260905213517 | 71 | 260 | 0.9 | 3.5 | 0.00 | 0.00 | 0.00 | 90 | 1021.3 |
| 20260905212535 | 72 | 286 | 0.0 | 1.7 | 0.00 | 0.00 | 0.00 | 89 | 1021.3 |
| 20260905211532 | 72 | 0.0 | 0.9 | 0.00 | 0.00 | 0.00 | 89 | 1021.3 | |
| 20260905210530 | 72 | 243 | 0.0 | 0.9 | 0.00 | 0.00 | 0.00 | 88 | 1021.2 |
| 20260905205527 | 72 | 230 | 0.0 | 0.9 | 0.00 | 0.00 | 0.00 | 88 | 1021.2 |
| 20260905204525 | 72 | 0.0 | 0.0 | 0.00 | 0.00 | 0.00 | 87 | 1021.2 | |
| 20260905203523 | 72 | 0.0 | 0.0 | 0.00 | 0.00 | 0.00 | 87 | 1021.2 | |
| 20260905202520 | 73 | 282 | 0.0 | 0.9 | 0.00 | 0.00 | 0.00 | 87 | 1021.1 |
| 20260905201518 | 73 | 0.0 | 0.9 | 0.00 | 0.00 | 0.00 | 86 | 1021.1 | |
| 20260905200515 | 73 | 0.0 | 0.0 | 0.00 | 0.00 | 0.00 | 86 | 1021.2 | |
| 20260905195533 | 73 | 255 | 0.0 | 0.9 | 0.00 | 0.00 | 0.00 | 86 | 1021.0 |
| 20260905194531 | 73 | 0.0 | 0.0 | 0.00 | 0.00 | 0.00 | 86 | 1021.0 | |
| 20260905193528 | 73 | 0.0 | 0.0 | 0.00 | 0.00 | 0.00 | 85 | 1020.9 | |
| 20260905192526 | 73 | 0.0 | 0.9 | 0.00 | 0.00 | 0.00 | 85 | 1020.9 | |
| 20260905191523 | 73 | 0.0 | 0.0 | 0.00 | 0.00 | 0.00 | 84 | 1020.8 | |
| 20260905190521 | 73 | 0.0 | 0.9 | 0.00 | 0.00 | 0.00 | 84 | 1020.6 | |
| 20260905185519 | 74 | 297 | 0.0 | 1.7 | 0.00 | 0.00 | 0.00 | 84 | 1020.5 |
| 20260905184516 | 74 | 0.0 | 0.0 | 0.00 | 0.00 | 0.00 | 83 | 1020.5 | |
| 20260905183534 | 74 | 0.0 | 0.0 | 0.00 | 0.00 | 0.00 | 82 | 1020.4 | |
| 20260905182531 | 74 | 0.0 | 0.9 | 0.00 | 0.00 | 0.00 | 82 | 1020.3 | |
| 20260905181529 | 74 | 0.0 | 0.0 | 0.00 | 0.00 | 0.00 | 81 | 1020.1 | |
| 20260905180527 | 74 | 0.0 | 0.0 | 0.00 | 0.00 | 0.00 | 80 | 1020.2 | |
| 20260905175524 | 74 | 0.0 | 0.0 | 0.00 | 0.00 | 0.00 | 81 | 1020.1 | |
| 20260905174522 | 75 | 251 | 0.9 | 2.6 | 0.00 | 0.00 | 0.00 | 81 | 1020.1 |
| 20260905173519 | 75 | 247 | 0.9 | 1.7 | 0.00 | 0.00 | 0.00 | 82 | 1020.0 |
| 20260905172517 | 76 | 244 | 0.0 | 1.7 | 0.00 | 0.00 | 0.00 | 81 | 1020.1 |
| 20260905171535 | 76 | 223 | 0.0 | 0.9 | 0.00 | 0.00 | 0.00 | 80 | 1020.0 |
| 20260905170532 | 76 | 223 | 0.9 | 2.6 | 0.00 | 0.00 | 0.00 | 79 | 1020.1 |
| 20260905165530 | 76 | 0.0 | 0.0 | 0.00 | 0.00 | 0.00 | 80 | 1020.0 | |
| 20260905164527 | 76 | 196 | 0.0 | 1.7 | 0.00 | 0.00 | 0.00 | 80 | 1020.1 |
| 20260905163525 | 77 | 198 | 0.9 | 2.6 | 0.00 | 0.00 | 0.00 | 79 | 1020.1 |
| 20260905162523 | 77 | 194 | 0.9 | 3.5 | 0.00 | 0.00 | 0.00 | 78 | 1020.1 |
| 20260905161520 | 77 | 196 | 0.9 | 3.5 | 0.00 | 0.00 | 0.00 | 77 | 1020.0 |
| 20260905160518 | 78 | 218 | 1.7 | 4.3 | 0.00 | 0.00 | 0.00 | 76 | 1020.0 |
| 20260905155515 | 79 | 197 | 2.6 | 5.2 | 0.00 | 0.00 | 0.00 | 73 | 1020.0 |
| 20260905154533 | 80 | 188 | 2.6 | 5.2 | 0.00 | 0.00 | 0.00 | 72 | 1019.9 |
| 20260905153530 | 79 | 191 | 2.6 | 7.0 | 0.00 | 0.00 | 0.00 | 73 | 1020.0 |
| 20260905152529 | 80 | 195 | 3.5 | 7.0 | 0.00 | 0.00 | 0.00 | 71 | 1019.9 |
| 20260905151526 | 80 | 194 | 3.5 | 7.0 | 0.00 | 0.00 | 0.00 | 70 | 1020.0 |
| 20260905150523 | 81 | 191 | 2.6 | 5.2 | 0.00 | 0.00 | 0.00 | 69 | 1020.0 |
| 20260905145521 | 82 | 224 | 2.6 | 6.1 | 0.00 | 0.00 | 0.00 | 68 | 1020.0 |
| 20260905144518 | 81 | 205 | 3.5 | 5.2 | 0.00 | 0.00 | 0.00 | 68 | 1020.1 |
| 20260905143516 | 82 | 203 | 3.5 | 6.1 | 0.00 | 0.00 | 0.00 | 67 | 1020.3 |
| 20260905142534 | 82 | 219 | 2.6 | 5.2 | 0.00 | 0.00 | 0.00 | 67 | 1020.3 |
| 20260905141531 | 82 | 205 | 2.6 | 5.2 | 0.00 | 0.00 | 0.00 | 66 | 1020.3 |
| 20260905140529 | 82 | 208 | 2.6 | 5.2 | 0.00 | 0.00 | 0.00 | 65 | 1020.3 |
| 20260905135526 | 83 | 177 | 2.6 | 6.1 | 0.00 | 0.00 | 0.00 | 64 | 1020.3 |
| 20260905134524 | 83 | 222 | 2.6 | 4.3 | 0.00 | 0.00 | 0.00 | 64 | 1020.5 |
| 20260905133522 | 83 | 222 | 2.6 | 6.1 | 0.00 | 0.00 | 0.00 | 63 | 1020.5 |
| 20260905132519 | 84 | 219 | 2.6 | 4.3 | 0.00 | 0.00 | 0.00 | 63 | 1020.6 |
| 20260905131517 | 84 | 190 | 2.6 | 7.0 | 0.00 | 0.00 | 0.00 | 62 | 1020.7 |
| 20260905130535 | 83 | 188 | 1.7 | 4.3 | 0.00 | 0.00 | 0.00 | 63 | 1020.7 |
| 20260905125532 | 83 | 187 | 2.6 | 7.8 | 0.00 | 0.00 | 0.00 | 62 | 1020.7 |
| 20260905124529 | 83 | 212 | 2.6 | 5.2 | 0.00 | 0.00 | 0.00 | 63 | 1020.9 |
| 20260905123527 | 84 | 211 | 2.6 | 6.1 | 0.00 | 0.00 | 0.00 | 62 | 1020.9 |
| 20260905122525 | 83 | 192 | 3.5 | 8.7 | 0.00 | 0.00 | 0.00 | 61 | 1021.0 |
| 20260905121522 | 84 | 215 | 2.6 | 7.0 | 0.00 | 0.00 | 0.00 | 60 | 1020.9 |
| 20260905120520 | 83 | 193 | 2.6 | 5.2 | 0.00 | 0.00 | 0.00 | 58 | 1021.0 |
| 20260905115517 | 82 | 186 | 3.5 | 8.7 | 0.00 | 0.00 | 0.00 | 57 | 1021.1 |
| 20260905114535 | 83 | 189 | 3.5 | 7.0 | 0.00 | 0.00 | 0.00 | 54 | 1021.1 |
| 20260905113533 | 83 | 225 | 2.6 | 7.0 | 0.00 | 0.00 | 0.00 | 56 | 1021.2 |